ETEB 152256Z AUTO 14004KT 9999 BKN045 06/06 A2987 RMK AO2 SLP134 T00580058 401210041 $ ETIK 152256Z AUTO 00000KT 9999 BKN050 OVC060 07/07 A2988 RMK AO2 SLP123 T00690069 401260047 FZRANO EDDE 152250Z 22012KT CAVOK 05/01 Q1009 EDDF 152250Z 18006KT CAVOK 08/05 Q1010 NOSIG ETIC 152311Z AUTO 00000KT 9999 SCT025 OVC035 06/06 A2987 RMK AO2 SLP124 $ EDQM 151750Z 21006KT 9999 SCT028 BKN036 04/03 Q1008 ETIH 152256Z AUTO 00000KT 9999 BKN044 OVC160 05/04 A2991 RMK AO2 RAE00RAB03E05 SLP138 P0000 T00510044 401230034 ETSI 152220Z AUTO 15002KT 9999 // ////// 06/06 Q1013 /// EDDP 152250Z 21012KT CAVOK 06/02 Q1009 NOSIG EDDM 152250Z 12004KT CAVOK 05/04 Q1013 NOSIG ETSN 152220Z 19003KT 9999 SCT023 BKN060 BKN090 06/06 Q1013 BLU ETHN 152220Z 15004KT 9999 -RA FEW003 BKN015 BKN040 06/06 Q1011 WHT EDDN 152250Z 14004KT 9999 -RA FEW037 07/05 Q1012 R28/290194 EDDS 152250Z VRB02KT CAVOK 07/07 Q1011

METAR Messwerte

Klicken Sie auf einen Ort, um die 36h-Historie abzurufen

Ort
m ü. NN
Zeit Temperatur Taupunkt Rel.
Luftfeuchte
Luftdruck:
Altimeter
NN
Station
Wind in Beaufort
(Knoten)
Sichtweite
(Meter)
Wolken
(Meter über Grund)
Wettererscheinung
Ansbach
467
So 15.12. 23:5666100 %1012
1014
957
SO 2 (4)>= 10000Stark bewölkt (1400) 
Bad Windsheim / Illesheim
325
So 15.12. 23:5677100 %1012
1013
974
Windstill>= 10000Bedeckt (1800)
Stark bewölkt (1500)
 
Erfurt-Bindersleben
323
So 15.12. 23:505175 %1009
1010
971
SW 4 (12)>= 10000Nicht signifikant 
Frankfurt
113
So 15.12. 23:508581 %1010
1010
997
S 2 (6)>= 10000Nicht signifikant 
Grafenwöhr
415
Mo 16.12. 00:1166100 %1012
1014
963
Windstill>= 10000Bedeckt (1100)
Wolkig (760)
 
Hof
568
So 15.12. 18:504393 %1008
1011
942
SSW 2 (6)>= 10000Stark bewölkt (1100)
Wolkig (850)
 
Hohenfels
442
So 15.12. 23:565493 %1013
1015
961
Windstill>= 10000Bedeckt (4900)
Stark bewölkt (1300)
 
Ingolstadt
370
So 15.12. 23:2066100 %1013
1014
969
SSO 1 (2)>= 10000  
Leipzig-Schkeuditz
149
So 15.12. 23:506275 %1009
1010
991
SSW 4 (12)>= 10000Nicht signifikant 
München
447
So 15.12. 23:505493 %1013
1015
960
OSO 2 (4)>= 10000Nicht signifikant 
Neuburg/Donau
387
So 15.12. 23:2066100 %1013
1015
967
S 2 (3)>= 10000Stark bewölkt (2700)
Stark bewölkt (1800)
Wolkig (700)
 
Niederstetten
473
So 15.12. 23:2066100 %1011
1013
956
SSO 2 (4)>= 10000Stark bewölkt (1200)
Stark bewölkt (460)
Leicht bewölkt (91)
Regen (schwach)
Nürnberg
312
So 15.12. 23:507587 %1012
1013
975
SO 2 (4)>= 10000Leicht bewölkt (1100)Regen (schwach)
Stuttgart
419
So 15.12. 23:5077100 %1011
1012
962
Uml 1 (2)>= 10000Nicht signifikant 

Altimeter: Einstellung am Altimeter (Höhenmesser), die Höhe 0 muss auf diesen Luftdruckwert zeigen, damit das Gerät die Stationshöhe richtig anzeigt.

NN: Luftdruck reduziert auf "Normal Null", auf Meereshöhe, dieser von der Temperatur abhängige Wert wird bisweilen unkorrekt einfach als "Luftdruck" bezeichnet. Eigentlich nur eine fiktive Größe, die es erlaubt, Stationen auf unterschiedlichen Höhen miteinander zu vergleichen.

Station: Realer Luftdruck an der Station.